createdAt,value
2023-05-02T00:00:55.858Z,8.90
2023-05-02T00:03:22.813Z,8.90
2023-05-02T00:05:49.785Z,8.80
2023-05-02T00:08:16.827Z,8.80
2023-05-02T00:10:43.553Z,8.90
2023-05-02T00:13:10.399Z,8.90
2023-05-02T00:15:37.047Z,8.80
2023-05-02T00:18:03.827Z,8.80
2023-05-02T00:20:30.583Z,8.80
2023-05-02T00:22:57.375Z,8.80
2023-05-02T00:25:24.112Z,8.90
2023-05-02T00:27:51.263Z,8.80
2023-05-02T00:30:18.853Z,9.00
2023-05-02T00:32:45.899Z,9.00
2023-05-02T00:35:12.856Z,9.10
2023-05-02T00:37:39.694Z,9.10
2023-05-02T00:40:08.125Z,9.00
2023-05-02T00:42:36.339Z,9.00
2023-05-02T00:45:06.679Z,8.90
2023-05-02T00:47:34.236Z,8.90
2023-05-02T00:50:01.932Z,8.90
2023-05-02T00:52:29.333Z,8.90
2023-05-02T00:54:57.034Z,8.80
2023-05-02T00:57:23.727Z,8.90
2023-05-02T00:59:51.026Z,8.80
2023-05-02T01:02:37.951Z,8.90
2023-05-02T01:05:16.725Z,8.80
2023-05-02T01:07:51.980Z,8.70
2023-05-02T01:10:30.810Z,8.80
2023-05-02T01:13:09.538Z,8.80
2023-05-02T01:15:39.384Z,8.70
2023-05-02T01:18:09.042Z,8.70
2023-05-02T01:20:41.829Z,8.80
2023-05-02T01:23:21.924Z,8.80
2023-05-02T01:26:00.260Z,8.80
2023-05-02T01:28:31.652Z,8.80
2023-05-02T01:30:59.406Z,8.80
2023-05-02T01:33:28.381Z,8.80
2023-05-02T01:35:57.473Z,8.80
2023-05-02T01:38:26.165Z,8.80
2023-05-02T01:40:54.463Z,8.90
2023-05-02T01:43:21.984Z,8.90
2023-05-02T01:45:50.712Z,9.00
2023-05-02T01:48:19.257Z,8.90
2023-05-02T01:50:47.627Z,8.80
2023-05-02T01:53:15.382Z,8.80
2023-05-02T01:55:45.276Z,8.80
2023-05-02T01:58:14.096Z,8.80
2023-05-02T02:00:41.971Z,8.60
2023-05-02T02:03:10.424Z,8.60
2023-05-02T02:05:39.805Z,8.60
2023-05-02T02:08:06.776Z,8.50
2023-05-02T02:10:40.115Z,8.50
2023-05-02T02:13:22.136Z,8.60
2023-05-02T02:15:50.876Z,8.50
2023-05-02T02:18:25.201Z,8.50
2023-05-02T02:20:53.997Z,8.40
2023-05-02T02:23:25.833Z,8.50
2023-05-02T02:25:54.112Z,8.50
2023-05-02T02:28:20.819Z,8.50
2023-05-02T02:30:47.940Z,8.50
2023-05-02T02:33:14.706Z,8.60
2023-05-02T02:35:50.463Z,8.50
2023-05-02T02:38:31.764Z,8.60
2023-05-02T02:41:11.098Z,8.50
2023-05-02T02:44:01.435Z,8.50
2023-05-02T02:46:46.490Z,8.40
2023-05-02T02:49:26.972Z,8.50
2023-05-02T02:52:12.263Z,8.40
2023-05-02T02:54:46.971Z,8.40
2023-05-02T02:57:25.902Z,8.40
2023-05-02T03:00:13.661Z,8.40
2023-05-02T03:02:42.750Z,8.40
2023-05-02T03:05:11.097Z,8.50
2023-05-02T03:07:37.823Z,8.40
2023-05-02T03:10:05.971Z,8.40
2023-05-02T03:12:33.119Z,8.40
2023-05-02T03:15:26.275Z,8.40
2023-05-02T03:25:37.017Z,8.40
2023-05-02T03:28:03.709Z,8.20
2023-05-02T03:30:30.432Z,8.30
2023-05-02T03:32:57.152Z,8.30
2023-05-02T03:35:24.042Z,8.20
2023-05-02T03:37:50.899Z,8.20
2023-05-02T03:40:21.657Z,8.20
2023-05-02T03:42:48.396Z,8.20
2023-05-02T03:45:15.259Z,8.20
2023-05-02T03:47:42.180Z,8.10
2023-05-02T03:50:09.196Z,8.10
2023-05-02T03:52:35.874Z,8.10
2023-05-02T03:55:02.523Z,8.10
2023-05-02T03:57:32.222Z,8.00
2023-05-02T03:59:59.425Z,8.00
2023-05-02T04:02:26.504Z,8.00
2023-05-02T04:04:53.232Z,8.00
2023-05-02T04:07:19.947Z,8.00
2023-05-02T04:09:46.689Z,7.90
2023-05-02T04:12:15.061Z,8.00
2023-05-02T04:14:41.699Z,7.90
2023-05-02T04:17:09.610Z,7.90
2023-05-02T04:19:36.499Z,8.00
2023-05-02T04:22:04.755Z,8.00
2023-05-02T04:24:31.386Z,8.00
2023-05-02T04:26:58.132Z,8.00
2023-05-02T04:29:24.781Z,8.00
2023-05-02T04:31:52.160Z,8.00
2023-05-02T04:34:18.781Z,8.00
2023-05-02T04:36:46.896Z,8.00
2023-05-02T04:39:13.547Z,8.00
2023-05-02T04:41:41.611Z,8.00
2023-05-02T04:44:08.413Z,8.10
2023-05-02T04:46:35.085Z,8.10
2023-05-02T04:49:02.121Z,8.10
2023-05-02T04:51:29.147Z,8.10
2023-05-02T04:53:55.785Z,8.10
2023-05-02T04:56:22.481Z,8.20
2023-05-02T04:58:49.114Z,8.20
2023-05-02T05:01:16.304Z,8.20
2023-05-02T05:03:43.370Z,8.30
2023-05-02T05:06:10.113Z,8.30
2023-05-02T05:08:37.586Z,8.30
2023-05-02T05:11:05.130Z,8.30
2023-05-02T05:13:31.968Z,8.30
2023-05-02T05:15:59.085Z,8.30
2023-05-02T05:18:26.246Z,8.40
2023-05-02T05:20:53.022Z,8.40
2023-05-02T05:23:19.648Z,8.40
2023-05-02T05:25:47.362Z,8.50
2023-05-02T05:28:16.329Z,8.40
2023-05-02T05:30:42.932Z,8.40
2023-05-02T05:33:09.658Z,8.50
2023-05-02T05:35:36.772Z,8.60
2023-05-02T05:38:06.342Z,8.70
2023-05-02T05:40:32.998Z,8.70
2023-05-02T05:42:59.585Z,8.80
2023-05-02T05:45:26.260Z,8.90
2023-05-02T05:47:55.550Z,9.00
2023-05-02T05:50:23.434Z,9.20
2023-05-02T05:52:50.074Z,9.30
2023-05-02T05:55:18.081Z,9.20
2023-05-02T05:57:44.712Z,9.20
2023-05-02T06:00:11.924Z,9.20
2023-05-02T06:02:40.384Z,9.20
2023-05-02T06:05:07.354Z,9.30
2023-05-02T06:07:35.838Z,9.40
2023-05-02T06:10:06.166Z,9.70
2023-05-02T06:12:32.825Z,9.90
2023-05-02T06:14:59.466Z,10.00
2023-05-02T06:17:26.703Z,10.00
2023-05-02T06:19:53.512Z,10.10
2023-05-02T06:22:21.018Z,10.10
2023-05-02T06:24:49.199Z,10.30
2023-05-02T06:27:16.478Z,10.50
2023-05-02T06:29:43.325Z,10.80
2023-05-02T06:32:11.577Z,10.90
2023-05-02T06:34:39.796Z,11.00
2023-05-02T06:37:06.894Z,11.20
2023-05-02T06:39:36.304Z,11.20
2023-05-02T06:42:03.270Z,11.40
2023-05-02T06:44:31.992Z,11.80
2023-05-02T06:46:58.712Z,11.80
2023-05-02T06:49:27.311Z,11.80
2023-05-02T06:51:53.959Z,11.40
2023-05-02T06:54:21.776Z,11.40
2023-05-02T06:56:48.527Z,11.50
2023-05-02T06:59:19.289Z,11.30
2023-05-02T07:01:47.868Z,11.70
2023-05-02T07:04:14.610Z,12.00
2023-05-02T07:06:42.974Z,11.60
2023-05-02T07:09:09.688Z,11.70
2023-05-02T07:11:36.325Z,11.70
2023-05-02T07:14:05.296Z,11.90
2023-05-02T07:16:32.045Z,12.00
2023-05-02T07:18:59.490Z,11.80
2023-05-02T07:21:28.176Z,11.60
2023-05-02T07:23:57.470Z,11.70
2023-05-02T07:26:27.476Z,11.80
2023-05-02T07:28:54.221Z,11.80
2023-05-02T07:31:23.390Z,12.20
2023-05-02T07:33:50.401Z,12.10
2023-05-02T07:36:19.997Z,12.10
2023-05-02T07:38:46.641Z,12.40
2023-05-02T07:41:16.364Z,12.60
2023-05-02T07:43:43.017Z,12.60
2023-05-02T07:46:09.756Z,12.80
2023-05-02T07:48:36.435Z,12.70
2023-05-02T07:51:10.730Z,12.80
2023-05-02T07:53:37.508Z,12.80
2023-05-02T07:56:08.779Z,13.20
2023-05-02T07:58:39.058Z,13.30
2023-05-02T08:01:05.749Z,13.20
2023-05-02T08:03:32.567Z,13.30
2023-05-02T08:05:59.292Z,13.20
2023-05-02T08:08:25.961Z,13.30
2023-05-02T08:10:52.639Z,13.20
2023-05-02T08:13:20.329Z,13.50
2023-05-02T08:15:46.999Z,13.90
2023-05-02T08:18:14.378Z,13.80
2023-05-02T08:20:41.161Z,13.80
2023-05-02T08:23:07.901Z,13.80
2023-05-02T08:25:34.586Z,13.50
2023-05-02T08:28:03.770Z,13.60
2023-05-02T08:30:30.403Z,13.60
2023-05-02T08:32:57.132Z,13.60
2023-05-02T08:35:23.853Z,13.40
2023-05-02T08:37:50.494Z,13.40
2023-05-02T08:40:24.632Z,13.40
2023-05-02T08:43:02.871Z,13.70
2023-05-02T08:45:49.823Z,13.50
2023-05-02T08:48:18.336Z,13.70
2023-05-02T08:50:48.125Z,13.70
2023-05-02T08:53:14.940Z,13.60
2023-05-02T08:55:44.072Z,13.50
2023-05-02T08:58:12.114Z,13.60
2023-05-02T09:00:41.040Z,13.80
2023-05-02T09:03:36.149Z,14.00
2023-05-02T09:06:08.736Z,13.80
2023-05-02T09:08:39.566Z,13.90
2023-05-02T09:11:09.589Z,14.00
2023-05-02T09:13:43.474Z,13.90
2023-05-02T09:16:11.515Z,13.70
2023-05-02T09:18:40.580Z,13.90
2023-05-02T09:21:17.957Z,14.10
2023-05-02T09:23:48.546Z,14.20
2023-05-02T09:26:22.028Z,13.90
2023-05-02T09:28:51.345Z,14.10
2023-05-02T09:31:54.914Z,13.70
2023-05-02T09:34:23.134Z,13.70
2023-05-02T09:36:51.798Z,14.00
2023-05-02T09:39:25.821Z,14.20
2023-05-02T09:41:52.976Z,13.90
2023-05-02T09:44:23.594Z,14.10
2023-05-02T09:46:55.842Z,14.00
2023-05-02T09:49:39.218Z,14.10
2023-05-02T09:52:17.373Z,14.30
2023-05-02T09:54:46.270Z,13.90
2023-05-02T09:57:13.060Z,14.00
2023-05-02T09:59:40.331Z,13.90
2023-05-02T10:02:09.612Z,13.80
2023-05-02T10:04:36.819Z,14.30
2023-05-02T10:07:05.057Z,14.50
2023-05-02T10:09:36.330Z,14.80
2023-05-02T10:12:08.205Z,14.60
2023-05-02T10:14:48.314Z,14.60
2023-05-02T10:17:37.912Z,14.20
2023-05-02T10:20:08.716Z,14.50
2023-05-02T10:22:36.642Z,14.40
2023-05-02T10:25:07.836Z,14.80
2023-05-02T10:27:37.778Z,14.90
2023-05-02T10:30:06.457Z,14.90
2023-05-02T10:32:34.552Z,15.10
2023-05-02T10:35:05.983Z,15.10
2023-05-02T10:37:39.368Z,15.10
2023-05-02T10:40:11.093Z,14.50
2023-05-02T10:42:40.144Z,14.40
2023-05-02T10:45:31.626Z,14.50
2023-05-02T10:48:24.755Z,14.40
2023-05-02T10:50:53.230Z,14.40
2023-05-02T10:53:32.054Z,14.30
2023-05-02T10:56:08.787Z,14.40
2023-05-02T10:58:36.350Z,14.40
2023-05-02T11:01:29.196Z,14.20
2023-05-02T11:03:59.835Z,14.50
2023-05-02T11:06:37.973Z,15.20
2023-05-02T11:09:16.168Z,15.80
2023-05-02T11:11:44.357Z,16.00
2023-05-02T11:14:14.463Z,16.00
2023-05-02T11:16:59.642Z,16.30
2023-05-02T11:19:33.481Z,16.90
2023-05-02T11:22:19.014Z,17.40
2023-05-02T11:24:47.857Z,17.50
2023-05-02T11:27:33.419Z,17.00
2023-05-02T11:30:02.046Z,16.70
2023-05-02T11:32:44.411Z,16.10
2023-05-02T11:35:27.457Z,16.00
2023-05-02T11:38:00.154Z,16.10
2023-05-02T11:40:28.506Z,15.80
2023-05-02T11:42:59.484Z,15.50
2023-05-02T11:45:33.305Z,15.60
2023-05-02T11:48:00.213Z,15.40
2023-05-02T11:50:30.205Z,15.70
2023-05-02T11:52:57.177Z,15.40
2023-05-02T11:55:24.606Z,15.70
2023-05-02T11:57:51.497Z,15.60
2023-05-02T12:00:18.462Z,16.00
2023-05-02T12:02:47.678Z,15.90
2023-05-02T12:05:15.100Z,15.80
2023-05-02T12:07:48.976Z,16.20
2023-05-02T12:10:16.368Z,16.30
2023-05-02T12:12:45.387Z,16.40
2023-05-02T12:15:12.727Z,16.60
2023-05-02T12:17:41.963Z,16.70
2023-05-02T12:20:10.772Z,16.40
2023-05-02T12:22:37.948Z,16.30
2023-05-02T12:25:05.711Z,16.50
2023-05-02T12:27:35.153Z,16.50
2023-05-02T12:30:02.819Z,16.60
2023-05-02T12:32:31.878Z,16.60
2023-05-02T12:34:59.674Z,16.80
2023-05-02T12:37:27.676Z,16.90
2023-05-02T12:39:55.873Z,17.10
2023-05-02T12:42:25.480Z,16.90
2023-05-02T12:44:53.208Z,16.50
2023-05-02T12:47:22.488Z,16.40
2023-05-02T12:49:51.043Z,16.00
2023-05-02T12:52:19.105Z,16.00
2023-05-02T12:54:46.626Z,15.90
2023-05-02T12:57:26.397Z,16.00
2023-05-02T12:59:56.514Z,15.60
2023-05-02T13:02:23.179Z,15.60
2023-05-02T13:04:49.934Z,15.60
2023-05-02T13:07:16.553Z,15.70
2023-05-02T13:09:43.197Z,16.10
2023-05-02T13:12:09.994Z,16.40
2023-05-02T13:14:36.793Z,16.70
2023-05-02T13:17:06.283Z,16.80
2023-05-02T13:19:32.938Z,16.90
2023-05-02T13:21:59.814Z,16.50
2023-05-02T13:24:26.675Z,16.30
2023-05-02T13:26:53.302Z,16.30
2023-05-02T13:29:19.945Z,16.40
2023-05-02T13:31:47.341Z,16.70
2023-05-02T13:34:13.954Z,16.70
2023-05-02T13:36:45.992Z,16.60
2023-05-02T13:39:13.782Z,16.70
2023-05-02T13:41:41.389Z,16.90
2023-05-02T13:44:09.236Z,16.90
2023-05-02T13:46:39.425Z,16.60
2023-05-02T13:49:06.320Z,16.40
2023-05-02T13:51:33.015Z,16.00
2023-05-02T13:54:00.380Z,16.30
2023-05-02T13:56:27.863Z,16.40
2023-05-02T13:58:54.568Z,16.40
2023-05-02T14:01:21.263Z,16.30
2023-05-02T14:03:49.758Z,16.20
2023-05-02T14:06:16.528Z,16.50
2023-05-02T14:08:43.788Z,16.60
2023-05-02T14:11:11.284Z,16.60
2023-05-02T14:13:38.039Z,16.50
2023-05-02T14:16:04.975Z,16.60
2023-05-02T14:18:31.634Z,16.70
2023-05-02T14:20:59.997Z,16.50
2023-05-02T14:23:30.806Z,16.10
2023-05-02T14:25:57.682Z,15.90
2023-05-02T14:28:27.067Z,15.80
2023-05-02T14:30:53.713Z,15.80
2023-05-02T14:33:21.352Z,15.80
2023-05-02T14:35:49.908Z,15.80
2023-05-02T14:38:16.913Z,15.60
2023-05-02T14:40:43.618Z,15.80
2023-05-02T14:43:13.828Z,15.90
2023-05-02T14:45:40.431Z,15.90
2023-05-02T14:48:09.776Z,15.90
2023-05-02T14:50:39.284Z,16.00
2023-05-02T14:53:06.292Z,16.00
2023-05-02T14:55:38.642Z,15.60
2023-05-02T14:58:10.435Z,15.40
2023-05-02T15:00:38.231Z,15.10
2023-05-02T15:03:08.495Z,15.10
2023-05-02T15:05:36.910Z,15.00
2023-05-02T15:08:03.763Z,15.00
2023-05-02T15:10:33.948Z,15.00
2023-05-02T15:13:01.022Z,14.80
2023-05-02T15:15:27.806Z,14.70
2023-05-02T15:17:54.465Z,14.80
2023-05-02T15:20:21.221Z,14.80
2023-05-02T15:22:47.837Z,14.70
2023-05-02T15:25:14.496Z,14.70
2023-05-02T15:27:43.508Z,14.70
2023-05-02T15:30:10.611Z,14.60
2023-05-02T15:32:37.331Z,14.50
2023-05-02T15:35:07.817Z,14.40
2023-05-02T15:37:34.997Z,14.50
2023-05-02T15:40:03.973Z,14.50
2023-05-02T15:42:31.470Z,14.60
2023-05-02T15:44:58.160Z,14.70
2023-05-02T15:47:25.063Z,14.70
2023-05-02T15:49:53.916Z,14.70
2023-05-02T15:52:21.154Z,14.70
2023-05-02T15:54:47.792Z,14.80
2023-05-02T15:57:16.235Z,15.00
2023-05-02T15:59:43.236Z,14.90
2023-05-02T16:02:10.005Z,14.80
2023-05-02T16:04:36.757Z,14.60
2023-05-02T16:07:05.744Z,14.70
2023-05-02T16:09:32.454Z,14.70
2023-05-02T16:12:00.767Z,14.70
2023-05-02T16:14:30.387Z,14.40
2023-05-02T16:16:58.537Z,14.00
2023-05-02T16:19:25.210Z,13.90
2023-05-02T16:21:51.968Z,13.70
2023-05-02T16:24:20.180Z,13.70
2023-05-02T16:26:46.905Z,13.70
2023-05-02T16:29:13.585Z,13.60
2023-05-02T16:31:41.730Z,13.50
2023-05-02T16:34:09.661Z,13.30
2023-05-02T16:36:36.367Z,13.20
2023-05-02T16:39:03.033Z,13.00
2023-05-02T16:41:29.668Z,12.90
2023-05-02T16:43:56.265Z,12.80
2023-05-02T16:46:23.206Z,12.70
2023-05-02T16:48:51.840Z,12.60
2023-05-02T16:51:18.477Z,12.50
2023-05-02T16:53:46.157Z,12.50
2023-05-02T16:56:12.862Z,12.50
2023-05-02T16:58:39.550Z,12.50
2023-05-02T17:01:06.325Z,12.30
2023-05-02T17:03:33.389Z,12.40
2023-05-02T17:06:01.622Z,12.40
2023-05-02T17:08:28.667Z,12.40
2023-05-02T17:10:56.122Z,12.30
2023-05-02T17:13:23.076Z,12.30
2023-05-02T17:15:49.958Z,12.20
2023-05-02T17:18:18.248Z,12.10
2023-05-02T17:20:49.366Z,12.10
2023-05-02T17:23:16.152Z,11.90
2023-05-02T17:25:42.927Z,11.80
2023-05-02T17:28:10.069Z,11.90
2023-05-02T17:30:36.920Z,11.90
2023-05-02T17:33:04.021Z,11.90
2023-05-02T17:35:31.690Z,11.90
2023-05-02T17:37:58.884Z,11.80
2023-05-02T17:40:25.556Z,11.80
2023-05-02T17:42:54.072Z,11.70
2023-05-02T17:45:20.708Z,11.70
2023-05-02T17:47:47.494Z,11.70
2023-05-02T17:50:14.257Z,11.70
2023-05-02T17:52:40.985Z,11.60
2023-05-02T17:55:08.739Z,11.70
2023-05-02T17:57:38.213Z,11.60
2023-05-02T18:00:09.369Z,11.60
2023-05-02T18:02:39.869Z,11.50
2023-05-02T18:05:07.837Z,11.50
2023-05-02T18:07:34.467Z,11.50
2023-05-02T18:10:04.208Z,11.40
2023-05-02T18:12:34.019Z,11.30
2023-05-02T18:15:02.029Z,11.30
2023-05-02T18:17:29.297Z,11.30
2023-05-02T18:19:55.984Z,11.40
2023-05-02T18:22:22.715Z,11.30
2023-05-02T18:24:50.142Z,11.30
2023-05-02T18:27:19.410Z,11.30
2023-05-02T18:29:46.133Z,11.20
2023-05-02T18:32:14.916Z,11.20
2023-05-02T18:34:42.255Z,11.10
2023-05-02T18:37:09.678Z,11.10
2023-05-02T18:39:36.638Z,11.10
2023-05-02T18:42:04.323Z,11.10
2023-05-02T18:44:31.333Z,11.10
2023-05-02T18:46:58.717Z,11.10
2023-05-02T18:49:26.353Z,11.20
2023-05-02T18:51:54.318Z,11.20
2023-05-02T18:54:23.140Z,11.10
2023-05-02T18:56:49.790Z,11.10
2023-05-02T18:59:16.699Z,11.10
2023-05-02T19:01:43.406Z,11.10
2023-05-02T19:04:10.124Z,11.10
2023-05-02T19:06:36.838Z,11.10
2023-05-02T19:09:05.354Z,11.10
2023-05-02T19:11:31.984Z,11.10
2023-05-02T19:14:00.568Z,11.00
2023-05-02T19:16:29.063Z,11.00
2023-05-02T19:18:56.979Z,11.00
2023-05-02T19:21:23.867Z,11.00
2023-05-02T19:23:51.552Z,11.00
2023-05-02T19:26:20.469Z,11.00
2023-05-02T19:28:47.198Z,11.00
2023-05-02T19:31:20.584Z,10.90
2023-05-02T19:33:54.733Z,10.90
2023-05-02T19:36:23.757Z,10.90
2023-05-02T19:38:54.629Z,10.80
2023-05-02T19:41:24.682Z,10.70
2023-05-02T19:43:52.002Z,10.70
2023-05-02T19:46:19.153Z,10.70
2023-05-02T19:48:48.206Z,10.60
2023-05-02T19:51:14.903Z,10.60
2023-05-02T19:53:43.391Z,10.60
2023-05-02T19:56:12.275Z,10.60
2023-05-02T19:58:40.457Z,10.60
2023-05-02T20:01:07.991Z,10.50
2023-05-02T20:03:35.304Z,10.40
2023-05-02T20:06:02.621Z,10.50
2023-05-02T20:08:31.302Z,10.40
2023-05-02T20:10:58.375Z,10.40
2023-05-02T20:13:25.152Z,10.40
2023-05-02T20:15:54.499Z,10.30
2023-05-02T20:18:21.231Z,10.20
2023-05-02T20:20:47.877Z,10.20
2023-05-02T20:23:15.170Z,10.00
2023-05-02T20:25:42.855Z,10.00
2023-05-02T20:28:09.978Z,9.90
2023-05-02T20:30:38.990Z,9.90
2023-05-02T20:33:14.974Z,9.90
2023-05-02T20:35:43.133Z,9.80
2023-05-02T20:38:09.900Z,9.80
2023-05-02T20:40:39.780Z,9.80
2023-05-02T20:43:06.578Z,9.80
2023-05-02T20:45:33.388Z,9.80
2023-05-02T20:48:00.570Z,9.70
2023-05-02T20:50:28.101Z,9.60
2023-05-02T20:52:55.262Z,9.50
2023-05-02T20:55:22.950Z,9.50
2023-05-02T20:57:53.136Z,9.40
2023-05-02T21:00:22.396Z,9.40
2023-05-02T21:02:49.597Z,9.40
2023-05-02T21:05:16.650Z,9.30
2023-05-02T21:07:44.651Z,9.30
2023-05-02T21:10:13.039Z,9.30
2023-05-02T21:12:39.784Z,9.30
2023-05-02T21:15:09.327Z,9.20
2023-05-02T21:17:38.932Z,9.10
2023-05-02T21:20:06.814Z,9.00
2023-05-02T21:22:34.803Z,8.90
2023-05-02T21:25:01.436Z,8.90
2023-05-02T21:27:28.146Z,8.80
2023-05-02T21:29:54.849Z,8.70
2023-05-02T21:32:22.429Z,8.80
2023-05-02T21:34:49.315Z,8.80
2023-05-02T21:37:15.939Z,8.70
2023-05-02T21:39:42.593Z,8.70
2023-05-02T21:42:09.194Z,8.70
2023-05-02T21:44:36.036Z,8.70
2023-05-02T21:47:03.439Z,8.60
2023-05-02T21:49:31.112Z,8.60
2023-05-02T21:51:58.459Z,8.60
2023-05-02T21:54:25.330Z,8.50
2023-05-02T21:56:54.035Z,8.50
2023-05-02T21:59:20.974Z,8.40
2023-05-02T22:01:47.644Z,8.40
2023-05-02T22:04:14.377Z,8.30
2023-05-02T22:06:41.405Z,8.30
2023-05-02T22:09:10.261Z,8.30
2023-05-02T22:11:37.132Z,8.20
2023-05-02T22:14:04.464Z,8.20
2023-05-02T22:16:31.199Z,8.20
2023-05-02T22:18:58.067Z,8.20
2023-05-02T22:21:25.086Z,8.20
2023-05-02T22:23:51.745Z,8.20
2023-05-02T22:26:18.396Z,8.10
2023-05-02T22:28:45.142Z,8.10
2023-05-02T22:31:11.754Z,8.00
2023-05-02T22:33:38.384Z,8.00
2023-05-02T22:36:05.180Z,8.00
2023-05-02T22:38:31.774Z,8.00
2023-05-02T22:40:58.464Z,8.00
2023-05-02T22:43:25.065Z,8.00
2023-05-02T22:45:51.996Z,8.00
2023-05-02T22:48:18.976Z,8.00
2023-05-02T22:50:47.747Z,8.00
2023-05-02T22:53:14.720Z,8.00
2023-05-02T22:55:41.520Z,7.90
2023-05-02T22:58:08.290Z,7.90
2023-05-02T23:00:34.920Z,7.80
2023-05-02T23:03:02.497Z,7.70
2023-05-02T23:05:29.750Z,7.70
2023-05-02T23:07:56.568Z,7.70
2023-05-02T23:10:23.221Z,7.60
2023-05-02T23:12:50.025Z,7.60
2023-05-02T23:15:16.677Z,7.60
2023-05-02T23:17:43.325Z,7.60
2023-05-02T23:20:10.808Z,7.50
2023-05-02T23:22:43.791Z,7.40
2023-05-02T23:25:12.306Z,7.40
2023-05-02T23:27:38.982Z,7.40
2023-05-02T23:30:07.861Z,7.30
2023-05-02T23:32:34.571Z,7.30
2023-05-02T23:35:01.755Z,7.30
2023-05-02T23:37:28.535Z,7.30
2023-05-02T23:39:55.442Z,7.30
2023-05-02T23:42:22.073Z,7.20
2023-05-02T23:44:49.390Z,7.20
2023-05-02T23:47:16.091Z,7.10
2023-05-02T23:49:42.788Z,7.10
2023-05-02T23:52:09.581Z,7.00
2023-05-02T23:54:36.219Z,6.90
2023-05-02T23:57:03.245Z,6.90
2023-05-02T23:59:30.034Z,6.90
